createdAt,value
2023-03-30T00:02:45.652Z,46.23
2023-03-30T00:07:48.508Z,46.43
2023-03-30T00:12:52.808Z,46.71
2023-03-30T00:17:55.699Z,46.96
2023-03-30T00:22:58.782Z,46.96
2023-03-30T00:28:02.890Z,47.10
2023-03-30T00:33:05.746Z,47.15
2023-03-30T00:38:08.567Z,47.31
2023-03-30T00:43:13.081Z,47.88
2023-03-30T00:48:17.757Z,47.72
2023-03-30T00:53:22.693Z,47.70
2023-03-30T00:58:26.884Z,47.93
2023-03-30T01:03:32.425Z,48.17
2023-03-30T01:08:35.475Z,48.12
2023-03-30T01:13:40.592Z,48.21
2023-03-30T01:18:48.456Z,48.30
2023-03-30T01:24:35.926Z,48.66
2023-03-30T01:30:04.439Z,48.88
2023-03-30T01:35:38.651Z,48.95
2023-03-30T01:40:43.060Z,48.91
2023-03-30T01:45:46.564Z,49.03
2023-03-30T01:50:51.151Z,48.98
2023-03-30T01:55:56.648Z,49.19
2023-03-30T02:00:59.822Z,49.49
2023-03-30T02:06:04.575Z,49.66
2023-03-30T02:11:08.859Z,49.55
2023-03-30T02:16:14.597Z,49.64
2023-03-30T02:21:20.682Z,49.57
2023-03-30T02:26:24.817Z,49.65
2023-03-30T02:31:27.604Z,49.90
2023-03-30T02:36:38.439Z,50.02
2023-03-30T02:42:04.781Z,50.12
2023-03-30T02:47:08.966Z,50.04
2023-03-30T02:52:15.802Z,50.18
2023-03-30T02:57:28.755Z,50.21
2023-03-30T03:02:44.871Z,50.52
2023-03-30T03:07:59.291Z,50.31
2023-03-30T03:13:03.557Z,50.42
2023-03-30T03:18:07.605Z,50.61
2023-03-30T03:23:11.730Z,50.70
2023-03-30T03:28:22.367Z,50.73
2023-03-30T03:33:32.889Z,50.51
2023-03-30T03:38:56.219Z,50.52
2023-03-30T03:44:00.847Z,50.17
2023-03-30T03:49:03.662Z,50.22
2023-03-30T03:54:06.732Z,50.01
2023-03-30T03:59:11.023Z,50.02
2023-03-30T04:04:13.824Z,50.24
2023-03-30T04:09:19.149Z,50.18
2023-03-30T04:14:38.190Z,49.99
2023-03-30T04:19:53.804Z,50.13
2023-03-30T04:25:22.610Z,50.28
2023-03-30T04:30:46.245Z,50.17
2023-03-30T04:36:09.598Z,49.81
2023-03-30T04:41:34.004Z,49.84
2023-03-30T04:46:57.287Z,50.14
2023-03-30T04:52:18.941Z,50.14
2023-03-30T04:57:40.491Z,49.90
2023-03-30T05:03:04.904Z,50.11
2023-03-30T05:08:37.230Z,50.16
2023-03-30T05:14:12.632Z,50.04
2023-03-30T05:19:29.342Z,50.06
2023-03-30T05:24:53.841Z,49.99
2023-03-30T05:30:26.483Z,50.04
2023-03-30T05:36:09.551Z,49.61
2023-03-30T05:41:33.126Z,49.76
2023-03-30T05:46:50.032Z,49.83
2023-03-30T05:52:09.576Z,49.89
2023-03-30T05:57:30.819Z,49.60
2023-03-30T06:02:49.966Z,49.85
2023-03-30T06:07:57.468Z,49.76
2023-03-30T06:13:00.762Z,49.96
2023-03-30T06:18:12.883Z,49.62
2023-03-30T06:23:23.128Z,49.78
2023-03-30T06:28:28.694Z,49.75
2023-03-30T06:33:31.969Z,49.78
2023-03-30T06:38:39.407Z,49.71
2023-03-30T06:43:42.688Z,49.53
2023-03-30T06:48:55.415Z,49.76
2023-03-30T06:54:22.511Z,49.50
2023-03-30T06:59:34.516Z,49.13
2023-03-30T07:05:08.903Z,48.54
2023-03-30T07:10:20.499Z,43.84
2023-03-30T07:15:24.428Z,43.21
2023-03-30T07:20:27.676Z,43.27
2023-03-30T07:25:47.122Z,43.69
2023-03-30T07:30:56.603Z,44.07
2023-03-30T07:35:59.775Z,44.63
2023-03-30T07:41:07.943Z,44.76
2023-03-30T07:46:11.918Z,44.64
2023-03-30T07:51:17.760Z,44.93
2023-03-30T07:56:44.783Z,44.73
2023-03-30T08:01:50.248Z,44.85
2023-03-30T08:07:10.063Z,44.42
2023-03-30T08:12:14.927Z,45.38
2023-03-30T08:17:19.197Z,45.45
2023-03-30T08:22:22.391Z,45.37
2023-03-30T08:27:26.524Z,44.94
2023-03-30T08:32:29.737Z,44.97
2023-03-30T08:37:32.506Z,45.16
2023-03-30T08:43:03.948Z,45.04
2023-03-30T08:48:08.968Z,45.69
2023-03-30T08:53:12.368Z,45.65
2023-03-30T08:58:18.566Z,45.66
2023-03-30T09:03:26.436Z,45.87
2023-03-30T09:08:30.015Z,45.98
2023-03-30T09:13:36.376Z,45.90
2023-03-30T09:18:39.413Z,45.54
2023-03-30T09:23:42.333Z,46.47
2023-03-30T09:28:49.234Z,46.53
2023-03-30T09:33:55.131Z,46.32
2023-03-30T09:38:58.054Z,46.68
2023-03-30T09:44:02.233Z,46.70
2023-03-30T09:49:14.556Z,46.72
2023-03-30T09:54:24.437Z,47.02
2023-03-30T09:59:32.316Z,46.92
2023-03-30T10:04:35.129Z,47.03
2023-03-30T10:09:38.090Z,47.45
2023-03-30T10:14:42.330Z,47.02
2023-03-30T10:19:49.441Z,46.47
2023-03-30T10:24:55.741Z,46.57
2023-03-30T10:29:59.958Z,46.81
2023-03-30T10:35:05.415Z,46.86
2023-03-30T10:40:12.940Z,47.12
2023-03-30T10:45:19.206Z,47.24
2023-03-30T10:50:26.989Z,47.18
2023-03-30T10:55:32.496Z,47.60
2023-03-30T11:00:50.471Z,47.80
2023-03-30T11:05:54.810Z,47.64
2023-03-30T11:10:58.743Z,47.38
2023-03-30T11:16:03.800Z,47.53
2023-03-30T11:21:07.775Z,47.42
2023-03-30T11:26:12.394Z,47.71
2023-03-30T11:31:24.003Z,47.94
2023-03-30T11:36:30.830Z,47.99
2023-03-30T11:41:36.774Z,47.94
2023-03-30T11:46:42.218Z,47.80
2023-03-30T11:51:50.110Z,47.92
2023-03-30T11:56:54.982Z,47.69
2023-03-30T12:02:08.633Z,47.52
2023-03-30T12:07:13.637Z,47.72
2023-03-30T12:12:16.784Z,47.48
2023-03-30T12:17:35.738Z,47.49
2023-03-30T12:22:40.996Z,47.09
2023-03-30T12:28:12.241Z,46.85
2023-03-30T12:33:20.269Z,46.88
2023-03-30T12:38:25.357Z,46.80
2023-03-30T12:43:30.894Z,46.45
2023-03-30T12:48:39.562Z,46.47
2023-03-30T12:54:04.880Z,46.27
2023-03-30T12:59:25.508Z,46.11
2023-03-30T13:04:30.153Z,46.21
2023-03-30T13:09:49.040Z,45.87
2023-03-30T13:14:58.529Z,46.60
2023-03-30T13:20:30.619Z,46.34
2023-03-30T13:25:40.671Z,46.70
2023-03-30T13:30:43.475Z,46.34
2023-03-30T13:35:52.919Z,46.30
2023-03-30T13:41:04.626Z,46.60
2023-03-30T13:46:17.177Z,46.58
2023-03-30T13:51:24.275Z,46.50
2023-03-30T13:56:27.587Z,45.68
2023-03-30T14:01:30.584Z,44.78
2023-03-30T14:06:35.407Z,44.99
2023-03-30T14:11:38.969Z,45.22
2023-03-30T14:16:41.854Z,45.20
2023-03-30T14:21:46.196Z,45.21
2023-03-30T14:26:50.247Z,45.46
2023-03-30T14:32:06.625Z,45.61
2023-03-30T14:37:12.664Z,45.35
2023-03-30T14:42:17.667Z,45.69
2023-03-30T14:47:21.631Z,45.63
2023-03-30T14:52:27.819Z,45.80
2023-03-30T14:57:30.820Z,45.90
2023-03-30T15:02:34.075Z,46.17
2023-03-30T15:07:38.203Z,46.28
2023-03-30T15:12:41.263Z,46.56
2023-03-30T15:17:46.197Z,46.71
2023-03-30T15:22:51.659Z,46.64
2023-03-30T15:27:57.016Z,46.94
2023-03-30T15:33:00.340Z,46.98
2023-03-30T15:38:05.773Z,47.41
2023-03-30T15:43:16.163Z,47.62
2023-03-30T15:48:21.298Z,47.50
2023-03-30T15:53:33.594Z,47.77
2023-03-30T15:58:36.457Z,49.65
2023-03-30T16:03:40.740Z,49.80
2023-03-30T16:08:45.259Z,49.61
2023-03-30T16:13:48.896Z,50.40
2023-03-30T16:18:51.743Z,50.44
2023-03-30T16:23:55.984Z,49.20
2023-03-30T16:28:59.203Z,46.94
2023-03-30T16:34:02.020Z,45.67
2023-03-30T16:39:08.017Z,45.01
2023-03-30T16:44:11.177Z,44.63
2023-03-30T16:49:14.973Z,44.13
2023-03-30T16:54:30.559Z,43.80
2023-03-30T16:59:34.595Z,43.99
2023-03-30T17:04:37.683Z,43.90
2023-03-30T17:09:42.036Z,44.34
2023-03-30T17:14:44.854Z,44.33
2023-03-30T17:19:47.600Z,44.75
2023-03-30T17:24:51.827Z,45.41
2023-03-30T17:29:54.644Z,45.37
2023-03-30T17:34:57.553Z,45.71
2023-03-30T17:40:01.750Z,45.97
2023-03-30T17:45:05.300Z,46.00
2023-03-30T17:50:23.101Z,46.06
2023-03-30T17:55:28.405Z,46.26
2023-03-30T18:00:32.067Z,45.66
2023-03-30T18:05:34.988Z,45.89
2023-03-30T18:10:39.962Z,45.83
2023-03-30T18:15:43.315Z,46.03
2023-03-30T18:20:46.411Z,47.13
2023-03-30T18:25:50.642Z,47.59
2023-03-30T18:30:55.101Z,47.54
2023-03-30T18:35:58.068Z,47.16
2023-03-30T18:41:02.225Z,47.18
2023-03-30T18:46:05.227Z,47.35
2023-03-30T18:51:09.734Z,46.73
2023-03-30T18:56:14.334Z,47.07
2023-03-30T19:01:17.147Z,46.96
2023-03-30T19:06:21.754Z,46.58
2023-03-30T19:11:26.851Z,46.53
2023-03-30T19:16:29.831Z,47.07
2023-03-30T19:21:32.705Z,46.68
2023-03-30T19:26:36.885Z,46.72
2023-03-30T19:31:39.813Z,46.25
2023-03-30T19:36:42.643Z,46.88
2023-03-30T19:41:46.856Z,46.63
2023-03-30T19:46:49.610Z,46.07
2023-03-30T19:51:52.901Z,46.44
2023-03-30T19:56:57.225Z,45.96
2023-03-30T20:02:00.294Z,46.11
2023-03-30T20:07:03.269Z,45.77
2023-03-30T20:12:07.604Z,46.08
2023-03-30T20:17:11.310Z,46.12
2023-03-30T20:22:14.113Z,46.29
2023-03-30T20:27:18.281Z,46.37
2023-03-30T20:32:21.846Z,46.22
2023-03-30T20:37:24.562Z,46.23
2023-03-30T20:42:28.759Z,46.16
2023-03-30T20:47:31.544Z,46.32
2023-03-30T20:52:34.595Z,46.18
2023-03-30T20:57:38.714Z,46.23
2023-03-30T21:02:41.530Z,46.22
2023-03-30T21:07:47.082Z,46.03
2023-03-30T21:12:51.283Z,46.19
2023-03-30T21:17:54.020Z,46.48
2023-03-30T21:22:56.865Z,46.11
2023-03-30T21:28:01.205Z,46.17
2023-03-30T21:33:04.074Z,46.18
2023-03-30T21:38:07.019Z,46.33
2023-03-30T21:43:11.231Z,46.12
2023-03-30T21:48:14.843Z,46.19
2023-03-30T21:53:17.592Z,46.34
2023-03-30T21:58:21.726Z,46.21
2023-03-30T22:03:24.709Z,46.33
2023-03-30T22:08:27.652Z,46.40
2023-03-30T22:13:31.897Z,46.49
2023-03-30T22:18:34.795Z,46.42
2023-03-30T22:23:37.603Z,46.40
2023-03-30T22:28:41.736Z,46.59
2023-03-30T22:33:44.601Z,46.89
2023-03-30T22:38:47.471Z,46.82
2023-03-30T22:43:51.984Z,46.88
2023-03-30T22:48:55.549Z,47.22
2023-03-30T22:53:59.200Z,47.32
2023-03-30T22:59:03.417Z,47.40
2023-03-30T23:04:06.655Z,47.24
2023-03-30T23:09:09.422Z,47.45
2023-03-30T23:14:13.691Z,47.52
2023-03-30T23:19:16.437Z,47.67
2023-03-30T23:24:19.207Z,47.58
2023-03-30T23:29:23.619Z,47.64
2023-03-30T23:34:26.993Z,47.71
2023-03-30T23:39:29.951Z,47.64
2023-03-30T23:44:34.112Z,47.79
2023-03-30T23:49:36.870Z,47.92
2023-03-30T23:54:40.784Z,48.07
2023-03-30T23:59:45.071Z,48.13
